createdAt,value
2018-10-09T00:01:59.579Z,12.10
2018-10-09T00:04:28.268Z,12.10
2018-10-09T00:06:56.967Z,12.20
2018-10-09T00:09:25.673Z,12.20
2018-10-09T00:11:54.451Z,12.20
2018-10-09T00:14:23.239Z,12.20
2018-10-09T00:16:51.959Z,12.20
2018-10-09T00:19:20.645Z,12.20
2018-10-09T00:21:49.408Z,12.20
2018-10-09T00:24:18.168Z,12.20
2018-10-09T00:26:46.976Z,12.20
2018-10-09T00:29:15.807Z,12.30
2018-10-09T00:31:44.545Z,12.20
2018-10-09T00:34:13.287Z,12.30
2018-10-09T00:36:41.995Z,12.30
2018-10-09T00:39:11.316Z,12.20
2018-10-09T00:41:40.103Z,12.20
2018-10-09T00:44:09.051Z,12.20
2018-10-09T00:46:38.105Z,12.20
2018-10-09T00:49:07.014Z,12.30
2018-10-09T00:51:35.687Z,12.30
2018-10-09T00:54:04.495Z,12.30
2018-10-09T00:56:33.289Z,12.30
2018-10-09T00:59:02.002Z,12.30
2018-10-09T01:01:30.603Z,12.30
2018-10-09T01:03:59.160Z,12.30
2018-10-09T01:06:27.801Z,12.40
2018-10-09T01:08:56.589Z,12.40
2018-10-09T01:11:25.270Z,12.40
2018-10-09T01:13:54.048Z,12.40
2018-10-09T01:16:22.797Z,12.40
2018-10-09T01:18:51.524Z,12.40
2018-10-09T01:21:20.265Z,12.40
2018-10-09T01:23:48.975Z,12.40
2018-10-09T01:26:17.583Z,12.40
2018-10-09T01:28:46.141Z,12.50
2018-10-09T01:31:14.770Z,12.50
2018-10-09T01:33:43.403Z,12.40
2018-10-09T01:36:12.037Z,12.50
2018-10-09T01:38:40.623Z,12.50
2018-10-09T01:41:09.115Z,12.50
2018-10-09T01:43:37.920Z,12.50
2018-10-09T01:46:06.851Z,12.50
2018-10-09T01:48:35.584Z,12.60
2018-10-09T01:51:04.571Z,12.60
2018-10-09T01:53:33.350Z,12.60
2018-10-09T01:56:02.212Z,12.60
2018-10-09T01:58:30.887Z,12.60
2018-10-09T02:00:59.576Z,12.60
2018-10-09T02:03:28.268Z,12.60
2018-10-09T02:05:57.073Z,12.60
2018-10-09T02:08:25.898Z,12.60
2018-10-09T02:10:54.615Z,12.60
2018-10-09T02:13:23.363Z,12.60
2018-10-09T02:15:52.175Z,12.50
2018-10-09T02:18:20.849Z,12.50
2018-10-09T02:20:49.520Z,12.50
2018-10-09T02:23:18.196Z,12.50
2018-10-09T02:25:46.863Z,12.50
2018-10-09T02:28:15.577Z,12.50
2018-10-09T02:30:44.244Z,12.40
2018-10-09T02:33:12.994Z,12.40
2018-10-09T02:35:41.711Z,12.40
2018-10-09T02:38:10.309Z,12.40
2018-10-09T02:40:39.051Z,12.40
2018-10-09T02:43:07.919Z,12.30
2018-10-09T02:45:36.583Z,12.30
2018-10-09T02:48:05.338Z,12.30
2018-10-09T02:50:34.095Z,12.30
2018-10-09T02:53:02.936Z,12.30
2018-10-09T02:55:31.698Z,12.30
2018-10-09T02:58:00.427Z,12.30
2018-10-09T03:00:29.141Z,12.30
2018-10-09T03:02:57.919Z,12.30
2018-10-09T03:05:26.692Z,12.30
2018-10-09T03:07:55.450Z,12.30
2018-10-09T03:10:24.674Z,12.30
2018-10-09T03:12:53.474Z,12.30
2018-10-09T03:15:22.200Z,12.30
2018-10-09T03:17:50.945Z,12.30
2018-10-09T03:20:19.732Z,12.30
2018-10-09T03:22:48.420Z,12.30
2018-10-09T03:25:17.146Z,12.30
2018-10-09T03:27:45.907Z,12.30
2018-10-09T03:30:14.526Z,12.30
2018-10-09T03:32:43.260Z,12.30
2018-10-09T03:35:12.059Z,12.30
2018-10-09T03:37:40.768Z,12.30
2018-10-09T03:40:09.544Z,12.30
2018-10-09T03:42:38.340Z,12.30
2018-10-09T03:45:07.487Z,12.40
2018-10-09T03:47:36.119Z,12.30
2018-10-09T03:50:05.263Z,12.30
2018-10-09T03:52:33.960Z,12.30
2018-10-09T03:55:02.623Z,12.30
2018-10-09T03:57:31.267Z,12.30
2018-10-09T03:59:59.999Z,12.30
2018-10-09T04:02:28.743Z,12.30
2018-10-09T04:04:57.581Z,12.30
2018-10-09T04:07:26.264Z,12.30
2018-10-09T04:09:54.920Z,12.30
2018-10-09T04:12:23.660Z,12.30
2018-10-09T04:14:52.461Z,12.30
2018-10-09T04:17:21.206Z,12.30
2018-10-09T04:19:50.029Z,12.30
2018-10-09T04:22:20.617Z,12.30
2018-10-09T04:24:49.229Z,12.30
2018-10-09T04:27:18.347Z,12.30
2018-10-09T04:29:47.181Z,12.30
2018-10-09T04:32:15.902Z,12.30
2018-10-09T04:34:44.640Z,12.30
2018-10-09T04:37:13.256Z,12.30
2018-10-09T04:39:42.326Z,12.30
2018-10-09T04:42:11.083Z,12.30
2018-10-09T04:44:39.729Z,12.30
2018-10-09T04:47:08.403Z,12.30
2018-10-09T04:49:37.179Z,12.30
2018-10-09T04:52:05.927Z,12.30
2018-10-09T04:54:34.507Z,12.30
2018-10-09T04:57:03.359Z,12.30
2018-10-09T04:59:32.124Z,12.30
2018-10-09T05:02:00.776Z,12.30
2018-10-09T05:04:29.528Z,12.30
2018-10-09T05:06:58.258Z,12.30
2018-10-09T05:09:27.043Z,12.40
2018-10-09T05:11:55.805Z,12.30
2018-10-09T05:14:24.495Z,12.40
2018-10-09T05:16:54.155Z,12.40
2018-10-09T05:19:22.860Z,12.40
2018-10-09T05:21:51.607Z,12.40
2018-10-09T05:24:20.312Z,12.40
2018-10-09T05:26:49.056Z,12.40
2018-10-09T05:29:17.763Z,12.40
2018-10-09T05:31:46.459Z,12.40
2018-10-09T05:34:15.248Z,12.30
2018-10-09T05:36:43.879Z,12.30
2018-10-09T05:39:12.475Z,12.30
2018-10-09T05:41:41.247Z,12.40
2018-10-09T05:44:10.072Z,12.40
2018-10-09T05:46:38.770Z,12.40
2018-10-09T05:49:07.491Z,12.30
2018-10-09T05:51:36.180Z,12.40
2018-10-09T05:54:04.919Z,12.40
2018-10-09T05:56:33.725Z,12.30
2018-10-09T05:59:02.617Z,12.30
2018-10-09T06:01:31.750Z,12.40
2018-10-09T06:04:01.052Z,12.40
2018-10-09T06:06:29.863Z,12.40
2018-10-09T06:08:58.512Z,12.40
2018-10-09T06:11:27.371Z,12.40
2018-10-09T06:13:56.106Z,12.40
2018-10-09T06:16:24.792Z,12.40
2018-10-09T06:18:53.567Z,12.40
2018-10-09T06:21:22.296Z,12.40
2018-10-09T06:23:50.982Z,12.40
2018-10-09T06:26:19.699Z,12.40
2018-10-09T06:28:48.261Z,12.40
2018-10-09T06:31:17.046Z,12.50
2018-10-09T06:33:45.808Z,12.50
2018-10-09T06:36:14.529Z,12.50
2018-10-09T06:38:43.169Z,12.50
2018-10-09T06:41:11.803Z,12.60
2018-10-09T06:43:40.531Z,12.60
2018-10-09T06:46:09.252Z,12.70
2018-10-09T06:48:38.005Z,12.70
2018-10-09T06:51:06.747Z,12.80
2018-10-09T06:53:35.452Z,12.80
2018-10-09T06:56:04.213Z,12.90
2018-10-09T06:58:32.922Z,12.90
2018-10-09T07:01:01.641Z,12.90
2018-10-09T07:03:30.355Z,12.90
2018-10-09T07:05:59.240Z,12.90
2018-10-09T07:08:27.947Z,13.00
2018-10-09T07:10:57.148Z,12.90
2018-10-09T07:13:26.413Z,12.90
2018-10-09T07:15:55.039Z,12.90
2018-10-09T07:18:23.911Z,13.00
2018-10-09T07:20:52.467Z,13.00
2018-10-09T07:23:21.247Z,13.00
2018-10-09T07:25:50.012Z,13.00
2018-10-09T07:28:18.700Z,13.00
2018-10-09T07:30:47.371Z,13.00
2018-10-09T07:33:16.112Z,13.00
2018-10-09T07:35:44.691Z,13.10
2018-10-09T07:38:13.332Z,13.10
2018-10-09T07:40:42.106Z,13.10
2018-10-09T07:43:10.849Z,13.20
2018-10-09T07:45:39.707Z,13.30
2018-10-09T07:48:08.459Z,13.30
2018-10-09T07:50:37.087Z,13.40
2018-10-09T07:53:05.787Z,13.40
2018-10-09T07:55:34.461Z,13.50
2018-10-09T07:58:03.054Z,13.50
2018-10-09T08:00:31.746Z,13.50
2018-10-09T08:03:00.475Z,13.50
2018-10-09T08:05:29.108Z,13.50
2018-10-09T08:07:57.935Z,13.60
2018-10-09T08:10:26.695Z,13.70
2018-10-09T08:12:55.339Z,13.80
2018-10-09T08:15:24.046Z,13.90
2018-10-09T08:17:52.737Z,13.90
2018-10-09T08:20:21.411Z,14.00
2018-10-09T08:22:50.221Z,14.10
2018-10-09T08:25:18.931Z,14.10
2018-10-09T08:27:47.533Z,14.20
2018-10-09T08:30:16.015Z,14.30
2018-10-09T08:32:44.597Z,14.30
2018-10-09T08:35:13.131Z,14.40
2018-10-09T08:37:41.701Z,14.50
2018-10-09T08:40:10.462Z,14.50
2018-10-09T08:42:39.063Z,14.60
2018-10-09T08:45:08.003Z,14.60
2018-10-09T08:47:36.726Z,14.70
2018-10-09T08:50:05.460Z,14.90
2018-10-09T08:52:34.135Z,15.10
2018-10-09T08:55:02.741Z,15.20
2018-10-09T08:57:31.472Z,15.30
2018-10-09T08:59:59.991Z,15.40
2018-10-09T09:02:28.727Z,15.40
2018-10-09T09:04:57.364Z,15.40
2018-10-09T09:07:26.012Z,15.40
2018-10-09T09:09:54.962Z,15.30
2018-10-09T09:12:23.812Z,15.40
2018-10-09T09:14:52.511Z,15.30
2018-10-09T09:17:21.144Z,15.40
2018-10-09T09:19:49.763Z,15.40
2018-10-09T09:22:18.371Z,15.40
2018-10-09T09:24:47.052Z,15.40
2018-10-09T09:27:15.743Z,15.40
2018-10-09T09:29:44.244Z,15.40
2018-10-09T09:32:12.895Z,15.40
2018-10-09T09:34:41.511Z,15.50
2018-10-09T09:37:10.106Z,15.60
2018-10-09T09:39:38.803Z,15.60
2018-10-09T09:42:07.369Z,15.60
2018-10-09T09:44:35.975Z,15.70
2018-10-09T09:47:04.682Z,15.80
2018-10-09T09:49:33.271Z,15.80
2018-10-09T09:52:01.817Z,15.90
2018-10-09T09:54:30.516Z,16.00
2018-10-09T09:56:59.075Z,16.00
2018-10-09T09:59:27.687Z,16.10
2018-10-09T10:01:56.324Z,16.20
2018-10-09T10:04:24.855Z,16.30
2018-10-09T10:06:53.443Z,16.30
2018-10-09T10:09:22.134Z,16.30
2018-10-09T10:11:50.659Z,16.30
2018-10-09T10:14:19.235Z,16.20
2018-10-09T10:16:47.904Z,16.20
2018-10-09T10:19:16.463Z,16.20
2018-10-09T10:21:45.055Z,16.20
2018-10-09T10:24:13.707Z,16.20
2018-10-09T10:26:42.272Z,16.20
2018-10-09T10:29:10.836Z,16.20
2018-10-09T10:31:39.387Z,16.20
2018-10-09T10:34:07.959Z,16.20
2018-10-09T10:36:36.673Z,16.20
2018-10-09T10:39:08.100Z,16.10
2018-10-09T10:41:36.645Z,16.20
2018-10-09T10:44:05.133Z,16.20
2018-10-09T10:46:39.824Z,16.10
2018-10-09T10:49:10.928Z,16.20
2018-10-09T10:51:39.396Z,16.20
2018-10-09T10:54:08.075Z,16.30
2018-10-09T10:56:36.931Z,16.30
2018-10-09T10:59:05.615Z,16.20
2018-10-09T11:01:34.303Z,16.20
2018-10-09T11:04:02.819Z,16.30
2018-10-09T11:06:32.063Z,16.40
2018-10-09T11:09:00.707Z,16.40
2018-10-09T11:11:29.303Z,16.40
2018-10-09T11:13:57.846Z,16.40
2018-10-09T11:16:26.402Z,16.40
2018-10-09T11:18:54.933Z,16.50
2018-10-09T11:21:23.640Z,16.40
2018-10-09T11:23:52.271Z,16.50
2018-10-09T11:26:20.877Z,16.50
2018-10-09T11:28:49.374Z,16.50
2018-10-09T11:31:17.983Z,16.40
2018-10-09T11:33:46.503Z,16.40
2018-10-09T11:36:15.183Z,16.40
2018-10-09T11:38:43.706Z,16.40
2018-10-09T11:41:12.241Z,16.50
2018-10-09T11:43:40.791Z,16.50
2018-10-09T11:46:09.322Z,16.50
2018-10-09T11:48:37.883Z,16.60
2018-10-09T11:51:06.587Z,16.70
2018-10-09T11:53:35.163Z,16.70
2018-10-09T11:56:03.635Z,16.70
2018-10-09T11:58:32.134Z,16.70
2018-10-09T12:01:02.934Z,16.70
2018-10-09T12:03:31.510Z,16.80
2018-10-09T12:06:00.136Z,16.80
2018-10-09T12:08:28.827Z,16.80
2018-10-09T12:10:57.423Z,16.80
2018-10-09T12:13:26.066Z,16.80
2018-10-09T12:15:54.667Z,16.80
2018-10-09T12:18:23.367Z,16.80
2018-10-09T12:20:52.004Z,16.90
2018-10-09T12:23:20.577Z,17.00
2018-10-09T12:25:49.199Z,17.00
2018-10-09T12:28:17.821Z,16.90
2018-10-09T12:30:46.349Z,16.90
2018-10-09T12:33:14.891Z,16.90
2018-10-09T12:35:43.882Z,16.80
2018-10-09T12:38:12.569Z,16.80
2018-10-09T12:40:41.039Z,16.80
2018-10-09T12:43:09.868Z,16.80
2018-10-09T12:45:38.463Z,16.90
2018-10-09T12:48:07.127Z,16.80
2018-10-09T12:50:35.807Z,16.80
2018-10-09T12:53:04.751Z,16.80
2018-10-09T12:55:33.282Z,16.70
2018-10-09T12:58:02.231Z,16.70
2018-10-09T13:00:30.852Z,16.70
2018-10-09T13:02:59.506Z,16.70
2018-10-09T13:05:28.047Z,16.60
2018-10-09T13:07:56.620Z,16.60
2018-10-09T13:10:25.234Z,16.50
2018-10-09T13:12:53.875Z,16.50
2018-10-09T13:15:22.465Z,16.50
2018-10-09T13:17:50.991Z,16.40
2018-10-09T13:20:19.715Z,16.40
2018-10-09T13:22:48.369Z,16.40
2018-10-09T13:25:16.854Z,16.40
2018-10-09T13:27:45.475Z,16.30
2018-10-09T13:30:14.121Z,16.30
2018-10-09T13:32:42.885Z,16.30
2018-10-09T13:35:11.691Z,16.30
2018-10-09T13:37:40.379Z,16.30
2018-10-09T13:40:09.034Z,16.30
2018-10-09T13:42:37.747Z,16.20
2018-10-09T13:45:06.509Z,16.20
2018-10-09T13:47:35.281Z,16.10
2018-10-09T13:50:04.061Z,16.10
2018-10-09T13:52:32.879Z,16.10
2018-10-09T13:55:01.546Z,16.10
2018-10-09T13:57:30.475Z,16.10
2018-10-09T13:59:59.024Z,16.20
2018-10-09T14:02:27.651Z,16.20
2018-10-09T14:04:56.327Z,16.20
2018-10-09T14:07:25.015Z,16.20
2018-10-09T14:09:53.599Z,16.10
2018-10-09T14:12:22.218Z,16.10
2018-10-09T14:14:50.798Z,16.10
2018-10-09T14:17:19.315Z,16.10
2018-10-09T14:19:47.923Z,16.10
2018-10-09T14:22:16.454Z,16.10
2018-10-09T14:24:44.959Z,16.20
2018-10-09T14:27:13.620Z,16.20
2018-10-09T14:29:42.187Z,16.30
2018-10-09T14:32:11.147Z,16.30
2018-10-09T14:34:39.795Z,16.30
2018-10-09T14:37:08.979Z,16.30
2018-10-09T14:39:37.507Z,16.20
2018-10-09T14:42:06.136Z,16.10
2018-10-09T14:44:34.654Z,16.10
2018-10-09T14:47:03.527Z,16.00
2018-10-09T14:49:32.135Z,15.90
2018-10-09T14:52:00.692Z,15.90
2018-10-09T14:54:29.223Z,15.90
2018-10-09T14:56:57.739Z,15.90
2018-10-09T14:59:26.283Z,15.80
2018-10-09T15:01:54.798Z,15.80
2018-10-09T15:04:23.400Z,15.80
2018-10-09T15:06:51.967Z,15.70
2018-10-09T15:09:20.843Z,15.70
2018-10-09T15:11:49.552Z,15.70
2018-10-09T15:14:18.131Z,15.60
2018-10-09T15:16:46.776Z,15.60
2018-10-09T15:19:15.308Z,15.60
2018-10-09T15:21:43.983Z,15.50
2018-10-09T15:24:12.675Z,15.50
2018-10-09T15:26:41.271Z,15.50
2018-10-09T15:29:09.970Z,15.40
2018-10-09T15:31:38.523Z,15.30
2018-10-09T15:34:07.343Z,15.30
2018-10-09T15:36:36.003Z,15.20
2018-10-09T15:39:06.919Z,15.20
2018-10-09T15:41:35.695Z,15.20
2018-10-09T15:44:04.440Z,15.10
2018-10-09T15:46:33.288Z,15.10
2018-10-09T15:49:02.073Z,15.10
2018-10-09T15:51:31.268Z,15.00
2018-10-09T15:54:00.072Z,14.90
2018-10-09T15:56:28.928Z,14.90
2018-10-09T15:58:57.756Z,14.80
2018-10-09T16:01:26.551Z,14.80
2018-10-09T16:03:55.419Z,14.70
2018-10-09T16:06:24.128Z,14.70
2018-10-09T16:08:52.935Z,14.60
2018-10-09T16:11:21.790Z,14.60
2018-10-09T16:13:50.526Z,14.60
2018-10-09T16:16:19.397Z,14.60
2018-10-09T16:18:48.227Z,14.50
2018-10-09T16:21:16.931Z,14.50
2018-10-09T16:23:46.832Z,14.50
2018-10-09T16:26:15.840Z,14.50
2018-10-09T16:28:44.566Z,14.40
2018-10-09T16:31:13.254Z,14.40
2018-10-09T16:33:47.444Z,14.30
2018-10-09T16:36:16.273Z,14.30
2018-10-09T16:38:45.224Z,14.20
2018-10-09T16:41:14.624Z,14.20
2018-10-09T16:43:43.452Z,14.20
2018-10-09T16:46:13.192Z,14.20
2018-10-09T16:48:41.891Z,14.20
2018-10-09T16:51:10.643Z,14.20
2018-10-09T16:53:39.242Z,14.20
2018-10-09T16:56:07.952Z,14.20
2018-10-09T16:58:39.400Z,14.20
2018-10-09T17:01:09.152Z,14.10
2018-10-09T17:03:37.847Z,14.10
2018-10-09T17:06:06.548Z,14.10
2018-10-09T17:08:35.455Z,14.20
2018-10-09T17:11:04.078Z,14.10
2018-10-09T17:15:15.977Z,14.10
2018-10-09T17:17:44.643Z,14.10
2018-10-09T17:20:13.312Z,14.10
2018-10-09T17:22:42.159Z,14.10
2018-10-09T17:25:10.657Z,14.10
2018-10-09T17:27:39.187Z,14.10
2018-10-09T17:30:07.961Z,14.10
2018-10-09T17:32:36.495Z,14.00
2018-10-09T17:35:05.095Z,14.00
2018-10-09T17:37:33.771Z,13.90
2018-10-09T17:40:02.380Z,13.90
2018-10-09T17:42:30.986Z,13.80
2018-10-09T17:44:59.663Z,13.80
2018-10-09T17:47:28.288Z,13.70
2018-10-09T17:49:56.935Z,13.60
2018-10-09T17:52:25.631Z,13.60
2018-10-09T17:54:54.517Z,13.60
2018-10-09T17:57:23.184Z,13.50
2018-10-09T17:59:52.730Z,13.40
2018-10-09T18:02:21.312Z,13.40
2018-10-09T18:04:49.951Z,13.30
2018-10-09T18:07:18.589Z,13.30
2018-10-09T18:09:47.200Z,13.30
2018-10-09T18:12:15.915Z,13.30
2018-10-09T18:14:44.832Z,13.20
2018-10-09T18:17:15.972Z,13.20
2018-10-09T18:19:48.107Z,13.10
2018-10-09T18:22:28.355Z,13.10
2018-10-09T18:25:19.940Z,13.10
2018-10-09T18:27:49.399Z,13.00
2018-10-09T18:30:19.805Z,13.00
2018-10-09T18:32:50.207Z,12.90
2018-10-09T18:35:20.766Z,12.90
2018-10-09T18:38:04.329Z,12.90
2018-10-09T18:40:43.172Z,12.90
2018-10-09T18:44:01.526Z,12.80
2018-10-09T18:47:04.159Z,12.70
2018-10-09T18:56:29.535Z,12.60
2018-10-09T18:58:58.397Z,12.60
2018-10-09T19:01:28.050Z,12.60
2018-10-09T19:03:58.229Z,12.60
2018-10-09T19:06:27.305Z,12.50
2018-10-09T19:08:56.059Z,12.50
2018-10-09T19:11:26.748Z,12.50
2018-10-09T19:13:56.155Z,12.50
2018-10-09T19:16:24.807Z,12.40
2018-10-09T19:18:56.686Z,12.40
2018-10-09T19:21:25.388Z,12.40
2018-10-09T19:23:54.084Z,12.30
2018-10-09T19:26:22.868Z,12.30
2018-10-09T19:28:51.586Z,12.30
2018-10-09T19:31:20.348Z,12.20
2018-10-09T19:33:49.107Z,12.20
2018-10-09T19:36:17.836Z,12.20
2018-10-09T19:38:46.583Z,12.20
2018-10-09T19:41:15.339Z,12.10
2018-10-09T19:43:44.064Z,12.10
2018-10-09T19:46:13.171Z,12.10
2018-10-09T19:48:41.948Z,12.10
2018-10-09T19:51:10.834Z,12.10
2018-10-09T19:53:39.548Z,12.00
2018-10-09T19:56:08.481Z,12.00
2018-10-09T19:58:37.430Z,12.00
2018-10-09T20:01:06.436Z,12.00
2018-10-09T20:03:35.438Z,12.00
2018-10-09T20:06:04.457Z,11.90
2018-10-09T20:08:33.288Z,11.90
2018-10-09T20:11:02.046Z,11.90
2018-10-09T20:13:30.832Z,11.90
2018-10-09T20:15:59.663Z,11.90
2018-10-09T20:18:29.315Z,11.90
2018-10-09T20:20:58.190Z,11.90
2018-10-09T20:23:26.923Z,11.80
2018-10-09T20:25:56.072Z,11.80
2018-10-09T20:28:24.851Z,11.80
2018-10-09T20:30:53.648Z,11.80
2018-10-09T20:33:22.528Z,11.80
2018-10-09T20:35:51.456Z,11.80
2018-10-09T20:38:20.264Z,11.80
2018-10-09T20:40:49.055Z,11.80
2018-10-09T20:43:17.804Z,11.80
2018-10-09T20:45:46.599Z,11.80
2018-10-09T20:48:15.523Z,11.80
2018-10-09T20:50:45.063Z,11.80
2018-10-09T20:53:13.847Z,11.80
2018-10-09T20:55:42.699Z,11.80
2018-10-09T20:58:11.689Z,11.80
2018-10-09T21:00:40.431Z,11.80
2018-10-09T21:03:09.183Z,11.70
2018-10-09T21:05:37.981Z,11.70
2018-10-09T21:08:06.848Z,11.70
2018-10-09T21:10:35.724Z,11.70
2018-10-09T21:13:04.584Z,11.70
2018-10-09T21:15:33.684Z,11.60
2018-10-09T21:18:02.618Z,11.60
2018-10-09T21:20:31.259Z,11.60
2018-10-09T21:22:59.955Z,11.60
2018-10-09T21:25:28.744Z,11.60
2018-10-09T21:27:57.556Z,11.60
2018-10-09T21:30:26.328Z,11.60
2018-10-09T21:32:55.092Z,11.60
2018-10-09T21:35:24.167Z,11.50
2018-10-09T21:37:53.615Z,11.50
2018-10-09T21:40:22.463Z,11.50
2018-10-09T21:42:51.264Z,11.50
2018-10-09T21:45:20.283Z,11.40
2018-10-09T21:47:54.473Z,11.40
2018-10-09T21:50:23.519Z,11.40
2018-10-09T21:52:52.512Z,11.40
2018-10-09T21:55:21.357Z,11.40
2018-10-09T21:57:50.490Z,11.40
2018-10-09T22:00:19.518Z,11.40
2018-10-09T22:02:48.564Z,11.40
2018-10-09T22:05:20.218Z,11.40
2018-10-09T22:07:49.635Z,11.40
2018-10-09T22:10:18.673Z,11.40
2018-10-09T22:12:49.813Z,11.40
2018-10-09T22:15:19.004Z,11.40
2018-10-09T22:17:48.571Z,11.40
2018-10-09T22:20:18.080Z,11.40
2018-10-09T22:22:47.133Z,11.40
2018-10-09T22:25:16.540Z,11.30
2018-10-09T22:27:51.600Z,11.40
2018-10-09T22:30:21.175Z,11.30
2018-10-09T22:32:51.611Z,11.30
2018-10-09T22:35:23.541Z,11.30
2018-10-09T22:37:54.444Z,11.30
2018-10-09T22:40:23.869Z,11.30
2018-10-09T22:43:15.118Z,11.30
2018-10-09T22:45:44.370Z,11.30
2018-10-09T22:48:13.592Z,11.20
2018-10-09T22:50:42.411Z,11.20
2018-10-09T22:53:12.017Z,11.20
2018-10-09T22:55:46.908Z,11.20
2018-10-09T22:58:17.082Z,11.20
2018-10-09T23:00:52.577Z,11.20
2018-10-09T23:03:40.027Z,11.20
2018-10-09T23:06:09.199Z,11.20
2018-10-09T23:08:39.652Z,11.20
2018-10-09T23:11:09.976Z,11.20
2018-10-09T23:13:39.363Z,11.20
2018-10-09T23:16:09.789Z,11.10
2018-10-09T23:18:40.144Z,11.10
2018-10-09T23:21:11.904Z,11.10
2018-10-09T23:23:40.800Z,11.10
2018-10-09T23:26:10.016Z,11.10
2018-10-09T23:28:40.047Z,11.10
2018-10-09T23:31:09.424Z,11.10
2018-10-09T23:33:56.290Z,11.10
2018-10-09T23:36:27.280Z,11.00
2018-10-09T23:38:56.181Z,11.00
2018-10-09T23:41:36.274Z,11.00
2018-10-09T23:44:08.414Z,11.00
2018-10-09T23:46:41.563Z,11.00
2018-10-09T23:51:52.255Z,11.00
2018-10-09T23:54:21.923Z,10.90
2018-10-09T23:56:51.996Z,10.90
2018-10-09T23:59:25.261Z,10.90
